createdAt,value
2018-07-19T00:00:20.939Z,56.00
2018-07-19T00:00:54.727Z,56.00
2018-07-19T00:01:28.534Z,56.00
2018-07-19T00:02:02.320Z,56.10
2018-07-19T00:02:35.343Z,56.00
2018-07-19T00:03:08.381Z,56.00
2018-07-19T00:03:41.411Z,56.00
2018-07-19T00:04:14.450Z,56.10
2018-07-19T00:04:47.484Z,56.10
2018-07-19T00:05:20.526Z,56.00
2018-07-19T00:05:53.563Z,56.10
2018-07-19T00:06:26.598Z,56.10
2018-07-19T00:07:00.415Z,56.10
2018-07-19T00:07:33.442Z,56.20
2018-07-19T00:08:06.519Z,56.10
2018-07-19T00:08:39.504Z,56.30
2018-07-19T00:09:12.550Z,56.20
2018-07-19T00:09:45.565Z,56.20
2018-07-19T00:10:19.372Z,56.30
2018-07-19T00:10:53.161Z,56.30
2018-07-19T00:11:26.955Z,56.20
2018-07-19T00:12:00.754Z,56.20
2018-07-19T00:12:34.570Z,56.20
2018-07-19T00:13:07.680Z,56.20
2018-07-19T00:13:40.731Z,56.10
2018-07-19T00:14:13.761Z,56.30
2018-07-19T00:14:47.563Z,56.40
2018-07-19T00:15:21.350Z,56.60
2018-07-19T00:15:55.152Z,56.50
2018-07-19T00:16:28.176Z,56.60
2018-07-19T00:17:01.217Z,56.60
2018-07-19T00:17:34.252Z,56.60
2018-07-19T00:18:07.275Z,56.60
2018-07-19T00:18:40.316Z,56.70
2018-07-19T00:19:14.121Z,56.90
2018-07-19T00:19:47.160Z,56.90
2018-07-19T00:20:20.208Z,56.90
2018-07-19T00:20:53.239Z,56.90
2018-07-19T00:21:26.275Z,57.00
2018-07-19T00:21:59.317Z,57.00
2018-07-19T00:22:32.351Z,56.90
2018-07-19T00:23:05.402Z,57.00
2018-07-19T00:23:38.433Z,57.00
2018-07-19T00:24:11.683Z,56.90
2018-07-19T00:24:45.091Z,56.90
2018-07-19T00:25:18.121Z,57.00
2018-07-19T00:25:52.125Z,57.10
2018-07-19T00:26:25.920Z,57.00
2018-07-19T00:26:59.719Z,56.90
2018-07-19T00:27:32.745Z,56.90
2018-07-19T00:28:05.780Z,57.00
2018-07-19T00:28:38.812Z,57.00
2018-07-19T00:29:11.860Z,57.10
2018-07-19T00:29:44.912Z,57.00
2018-07-19T00:30:17.937Z,57.00
2018-07-19T00:30:50.957Z,57.10
2018-07-19T00:31:23.983Z,57.00
2018-07-19T00:31:57.008Z,57.10
2018-07-19T00:32:30.028Z,57.20
2018-07-19T00:33:03.067Z,57.10
2018-07-19T00:33:36.095Z,57.20
2018-07-19T00:34:09.152Z,57.10
2018-07-19T00:34:42.181Z,57.20
2018-07-19T00:35:15.215Z,57.30
2018-07-19T00:35:48.252Z,57.30
2018-07-19T00:36:21.292Z,57.40
2018-07-19T00:36:54.324Z,57.30
2018-07-19T00:37:27.359Z,57.40
2018-07-19T00:38:00.392Z,57.40
2018-07-19T00:38:33.422Z,57.30
2018-07-19T00:39:06.456Z,57.50
2018-07-19T00:39:39.519Z,57.50
2018-07-19T00:40:12.552Z,57.50
2018-07-19T00:40:45.573Z,57.40
2018-07-19T00:41:18.617Z,57.40
2018-07-19T00:41:51.646Z,57.50
2018-07-19T00:42:24.667Z,57.60
2018-07-19T00:42:57.699Z,57.60
2018-07-19T00:43:30.754Z,57.70
2018-07-19T00:44:04.587Z,57.70
2018-07-19T00:44:37.628Z,57.60
2018-07-19T00:45:11.426Z,57.60
2018-07-19T00:45:44.465Z,57.60
2018-07-19T00:46:17.569Z,57.60
2018-07-19T00:46:51.361Z,57.60
2018-07-19T00:47:25.156Z,57.70
2018-07-19T00:47:58.957Z,57.60
2018-07-19T00:48:31.977Z,57.60
2018-07-19T00:49:05.004Z,57.70
2018-07-19T00:49:38.803Z,57.60
2018-07-19T00:50:11.857Z,57.60
2018-07-19T00:50:45.652Z,57.70
2018-07-19T00:51:19.440Z,57.60
2018-07-19T00:51:53.235Z,57.70
2018-07-19T00:52:27.023Z,57.70
2018-07-19T00:53:00.831Z,57.70
2018-07-19T00:53:34.616Z,57.80
2018-07-19T00:54:08.404Z,57.80
2018-07-19T00:54:42.196Z,57.80
2018-07-19T00:55:15.243Z,57.80
2018-07-19T00:55:48.285Z,57.80
2018-07-19T00:56:21.316Z,57.70
2018-07-19T00:56:55.152Z,57.80
2018-07-19T00:57:28.903Z,57.80
2018-07-19T00:58:02.703Z,58.00
2018-07-19T00:58:35.750Z,58.00
2018-07-19T00:59:08.812Z,58.00
2018-07-19T00:59:41.832Z,58.00
2018-07-19T01:00:14.863Z,58.00
2018-07-19T01:00:47.897Z,57.90
2018-07-19T01:01:20.932Z,57.90
2018-07-19T01:01:53.961Z,58.00
2018-07-19T01:02:26.997Z,58.00
2018-07-19T01:03:00.778Z,58.00
2018-07-19T01:03:33.802Z,57.90
2018-07-19T01:04:06.836Z,58.00
2018-07-19T01:04:40.648Z,58.00
2018-07-19T01:05:13.683Z,57.90
2018-07-19T01:05:46.717Z,58.00
2018-07-19T01:06:19.744Z,57.90
2018-07-19T01:06:53.558Z,58.10
2018-07-19T01:07:27.349Z,58.80
2018-07-19T01:08:00.377Z,58.20
2018-07-19T01:08:33.620Z,58.20
2018-07-19T01:09:06.656Z,58.20
2018-07-19T01:09:40.472Z,58.20
2018-07-19T01:10:13.503Z,58.20
2018-07-19T01:10:46.533Z,58.30
2018-07-19T01:11:19.567Z,58.50
2018-07-19T01:11:52.605Z,58.20
2018-07-19T01:12:25.640Z,58.30
2018-07-19T01:12:59.435Z,58.30
2018-07-19T01:13:32.477Z,58.20
2018-07-19T01:14:05.504Z,58.30
2018-07-19T01:14:38.555Z,58.30
2018-07-19T01:15:11.596Z,58.30
2018-07-19T01:15:44.633Z,58.20
2018-07-19T01:16:17.653Z,58.30
2018-07-19T01:16:50.684Z,58.30
2018-07-19T01:17:23.920Z,58.40
2018-07-19T01:17:56.955Z,58.40
2018-07-19T01:18:29.983Z,58.50
2018-07-19T01:19:03.028Z,58.40
2018-07-19T01:19:36.068Z,58.50
2018-07-19T01:20:09.096Z,58.50
2018-07-19T01:20:43.119Z,58.50
2018-07-19T01:21:16.152Z,58.50
2018-07-19T01:21:49.927Z,58.50
2018-07-19T01:22:22.952Z,58.50
2018-07-19T01:22:56.004Z,58.40
2018-07-19T01:23:29.028Z,58.50
2018-07-19T01:24:02.066Z,58.50
2018-07-19T01:24:35.877Z,58.60
2018-07-19T01:25:08.925Z,58.60
2018-07-19T01:25:42.728Z,58.70
2018-07-19T01:26:15.764Z,58.70
2018-07-19T01:26:48.796Z,58.60
2018-07-19T01:27:21.823Z,58.80
2018-07-19T01:27:54.850Z,58.70
2018-07-19T01:28:28.084Z,58.70
2018-07-19T01:29:01.880Z,58.80
2018-07-19T01:29:35.136Z,58.70
2018-07-19T01:30:08.170Z,58.80
2018-07-19T01:30:41.200Z,58.80
2018-07-19T01:31:14.232Z,58.90
2018-07-19T01:31:47.268Z,58.90
2018-07-19T01:32:21.083Z,59.00
2018-07-19T01:32:54.107Z,59.00
2018-07-19T01:33:27.155Z,58.90
2018-07-19T01:34:00.191Z,58.90
2018-07-19T01:34:33.236Z,58.90
2018-07-19T01:35:06.268Z,59.00
2018-07-19T01:35:39.273Z,59.00
2018-07-19T01:36:12.303Z,59.00
2018-07-19T01:36:45.330Z,59.00
2018-07-19T01:37:18.367Z,59.00
2018-07-19T01:37:51.400Z,59.00
2018-07-19T01:38:24.424Z,59.00
2018-07-19T01:38:57.453Z,59.10
2018-07-19T01:39:31.248Z,59.10
2018-07-19T01:40:05.050Z,59.10
2018-07-19T01:40:38.075Z,59.10
2018-07-19T01:41:11.123Z,59.10
2018-07-19T01:41:44.155Z,59.10
2018-07-19T01:42:25.876Z,59.10
2018-07-19T01:42:58.907Z,59.10
2018-07-19T01:43:32.699Z,59.10
2018-07-19T01:44:05.715Z,59.10
2018-07-19T01:44:38.743Z,59.20
2018-07-19T01:45:12.581Z,59.20
2018-07-19T01:45:46.352Z,59.30
2018-07-19T01:46:19.384Z,59.30
2018-07-19T01:46:52.403Z,59.20
2018-07-19T01:47:25.420Z,59.20
2018-07-19T01:47:58.435Z,59.20
2018-07-19T01:48:31.471Z,59.20
2018-07-19T01:49:04.514Z,59.30
2018-07-19T01:49:37.548Z,59.20
2018-07-19T01:50:11.356Z,59.40
2018-07-19T01:50:45.135Z,59.40
2018-07-19T01:51:18.923Z,59.40
2018-07-19T01:51:51.948Z,59.30
2018-07-19T01:52:24.978Z,59.20
2018-07-19T01:52:58.771Z,59.40
2018-07-19T01:53:32.564Z,59.40
2018-07-19T01:54:06.363Z,59.50
2018-07-19T01:54:39.394Z,59.50
2018-07-19T01:55:12.447Z,59.60
2018-07-19T01:55:45.483Z,59.50
2018-07-19T01:56:19.281Z,59.50
2018-07-19T01:56:53.071Z,59.60
2018-07-19T01:57:26.869Z,59.50
2018-07-19T01:57:59.915Z,59.50
2018-07-19T01:58:32.952Z,59.50
2018-07-19T01:59:05.974Z,59.50
2018-07-19T01:59:39.768Z,59.50
2018-07-19T02:00:13.685Z,59.40
2018-07-19T02:00:46.720Z,59.40
2018-07-19T02:01:19.752Z,59.50
2018-07-19T02:01:52.775Z,59.50
2018-07-19T02:02:25.807Z,59.50
2018-07-19T02:02:58.822Z,59.60
2018-07-19T02:03:31.864Z,59.50
2018-07-19T02:04:04.892Z,59.60
2018-07-19T02:04:38.675Z,59.70
2018-07-19T02:05:11.711Z,59.70
2018-07-19T02:05:44.739Z,59.70
2018-07-19T02:06:18.551Z,59.70
2018-07-19T02:06:51.576Z,59.70
2018-07-19T02:07:24.603Z,59.70
2018-07-19T02:07:57.649Z,59.70
2018-07-19T02:08:31.450Z,59.70
2018-07-19T02:09:04.476Z,59.70
2018-07-19T02:09:37.507Z,59.80
2018-07-19T02:10:10.531Z,59.70
2018-07-19T02:10:43.560Z,59.80
2018-07-19T02:11:16.575Z,60.60
2018-07-19T02:11:49.632Z,59.80
2018-07-19T02:12:23.436Z,59.90
2018-07-19T02:12:56.475Z,59.80
2018-07-19T02:13:29.496Z,59.80
2018-07-19T02:14:02.543Z,59.90
2018-07-19T02:14:35.580Z,59.90
2018-07-19T02:15:09.409Z,59.90
2018-07-19T02:15:42.443Z,60.70
2018-07-19T02:16:16.236Z,59.90
2018-07-19T02:16:50.049Z,59.90
2018-07-19T02:17:23.082Z,59.90
2018-07-19T02:17:56.125Z,60.00
2018-07-19T02:18:29.152Z,59.90
2018-07-19T02:19:02.951Z,59.90
2018-07-19T02:19:36.754Z,59.90
2018-07-19T02:20:09.799Z,59.90
2018-07-19T02:20:42.828Z,60.00
2018-07-19T02:21:15.848Z,59.90
2018-07-19T02:21:48.888Z,59.90
2018-07-19T02:22:21.927Z,59.90
2018-07-19T02:22:54.972Z,59.90
2018-07-19T02:23:28.001Z,60.00
2018-07-19T02:24:01.030Z,60.10
2018-07-19T02:24:34.059Z,60.00
2018-07-19T02:25:07.109Z,60.20
2018-07-19T02:25:40.124Z,60.30
2018-07-19T02:26:13.152Z,60.20
2018-07-19T02:26:46.170Z,60.30
2018-07-19T02:27:19.193Z,60.30
2018-07-19T02:27:52.222Z,60.40
2018-07-19T02:28:25.269Z,60.40
2018-07-19T02:28:58.303Z,60.40
2018-07-19T02:29:31.329Z,60.50
2018-07-19T02:30:05.135Z,60.60
2018-07-19T02:30:38.173Z,60.60
2018-07-19T02:31:11.191Z,60.50
2018-07-19T02:31:44.224Z,60.60
2018-07-19T02:32:17.271Z,60.50
2018-07-19T02:32:51.065Z,60.70
2018-07-19T02:33:24.083Z,60.70
2018-07-19T02:33:57.118Z,60.80
2018-07-19T02:34:30.910Z,60.70
2018-07-19T02:35:04.705Z,60.80
2018-07-19T02:35:38.495Z,60.90
2018-07-19T02:36:11.529Z,60.80
2018-07-19T02:36:44.571Z,60.80
2018-07-19T02:37:17.612Z,60.90
2018-07-19T02:37:50.641Z,60.90
2018-07-19T02:38:23.670Z,61.00
2018-07-19T02:38:56.707Z,61.00
2018-07-19T02:39:29.720Z,61.10
2018-07-19T02:40:02.749Z,61.00
2018-07-19T02:40:35.793Z,61.00
2018-07-19T02:41:08.808Z,61.10
2018-07-19T02:41:42.740Z,61.20
2018-07-19T02:42:15.763Z,61.20
2018-07-19T02:42:48.803Z,61.40
2018-07-19T02:43:21.843Z,61.30
2018-07-19T02:43:54.954Z,61.40
2018-07-19T02:44:27.897Z,61.40
2018-07-19T02:45:01.705Z,62.40
2018-07-19T02:45:34.736Z,61.50
2018-07-19T02:46:07.770Z,61.50
2018-07-19T02:46:40.817Z,61.60
2018-07-19T02:47:14.591Z,61.80
2018-07-19T02:47:47.618Z,61.80
2018-07-19T02:48:20.672Z,61.80
2018-07-19T02:48:53.704Z,61.70
2018-07-19T02:49:26.745Z,61.70
2018-07-19T02:49:59.782Z,61.80
2018-07-19T02:50:33.580Z,62.00
2018-07-19T02:51:06.607Z,62.00
2018-07-19T02:51:39.652Z,61.90
2018-07-19T02:52:13.008Z,62.10
2018-07-19T02:52:46.800Z,62.00
2018-07-19T02:53:20.595Z,61.90
2018-07-19T02:53:54.422Z,62.00
2018-07-19T02:54:27.450Z,62.00
2018-07-19T02:55:01.253Z,62.00
2018-07-19T02:55:34.288Z,62.00
2018-07-19T02:56:07.320Z,61.90
2018-07-19T02:56:40.347Z,62.00
2018-07-19T02:57:13.376Z,62.10
2018-07-19T02:57:46.399Z,62.10
2018-07-19T02:58:19.423Z,62.00
2018-07-19T02:58:52.457Z,62.10
2018-07-19T02:59:25.497Z,62.30
2018-07-19T02:59:58.520Z,62.00
2018-07-19T03:00:32.460Z,62.20
2018-07-19T03:01:05.492Z,62.20
2018-07-19T03:01:39.283Z,62.10
2018-07-19T03:02:12.328Z,62.10
2018-07-19T03:02:45.344Z,62.20
2018-07-19T03:03:18.604Z,62.20
2018-07-19T03:03:51.623Z,62.40
2018-07-19T03:04:24.657Z,62.40
2018-07-19T03:04:58.428Z,62.40
2018-07-19T03:05:31.456Z,62.40
2018-07-19T03:06:04.504Z,62.30
2018-07-19T03:06:38.362Z,62.40
2018-07-19T03:07:11.336Z,62.40
2018-07-19T03:07:44.415Z,62.40
2018-07-19T03:08:17.391Z,63.20
2018-07-19T03:08:50.416Z,62.40
2018-07-19T03:09:23.448Z,62.40
2018-07-19T03:09:56.475Z,62.30
2018-07-19T03:10:29.516Z,62.30
2018-07-19T03:11:02.544Z,62.40
2018-07-19T03:11:35.583Z,62.40
2018-07-19T03:12:08.603Z,62.50
2018-07-19T03:12:41.632Z,62.50
2018-07-19T03:13:14.651Z,62.60
2018-07-19T03:13:47.709Z,62.70
2018-07-19T03:14:20.896Z,62.80
2018-07-19T03:14:54.875Z,62.90
2018-07-19T03:15:27.911Z,62.80
2018-07-19T03:16:01.720Z,62.90
2018-07-19T03:16:34.759Z,62.90
2018-07-19T03:17:07.792Z,62.90
2018-07-19T03:17:40.820Z,62.70
2018-07-19T03:18:14.611Z,62.80
2018-07-19T03:18:48.408Z,62.90
2018-07-19T03:19:21.431Z,62.90
2018-07-19T03:19:54.448Z,63.00
2018-07-19T03:20:28.251Z,63.00
2018-07-19T03:21:02.036Z,63.10
2018-07-19T03:21:35.832Z,63.20
2018-07-19T03:22:09.619Z,63.20
2018-07-19T03:22:43.423Z,63.10
2018-07-19T03:23:17.235Z,63.00
2018-07-19T03:23:50.260Z,63.00
2018-07-19T03:24:23.291Z,63.10
2018-07-19T03:24:56.311Z,63.10
2018-07-19T03:25:29.355Z,63.00
2018-07-19T03:26:02.395Z,63.20
2018-07-19T03:26:35.416Z,63.10
2018-07-19T03:27:08.439Z,63.20
2018-07-19T03:27:41.471Z,63.30
2018-07-19T03:28:14.497Z,63.10
2018-07-19T03:28:47.531Z,63.20
2018-07-19T03:29:20.556Z,63.20
2018-07-19T03:29:53.579Z,63.20
2018-07-19T03:30:26.632Z,63.30
2018-07-19T03:30:59.673Z,63.30
2018-07-19T03:31:32.690Z,63.40
2018-07-19T03:32:05.724Z,63.30
2018-07-19T03:32:38.755Z,63.20
2018-07-19T03:33:11.803Z,63.30
2018-07-19T03:33:44.824Z,63.30
2018-07-19T03:34:17.852Z,63.30
2018-07-19T03:34:50.900Z,63.30
2018-07-19T03:35:23.933Z,63.20
2018-07-19T03:35:56.972Z,63.20
2018-07-19T03:36:30.009Z,63.20
2018-07-19T03:37:03.251Z,63.20
2018-07-19T03:37:36.291Z,63.30
2018-07-19T03:38:09.313Z,63.40
2018-07-19T03:38:43.112Z,63.40
2018-07-19T03:39:16.908Z,63.50
2018-07-19T03:39:50.712Z,63.70
2018-07-19T03:40:23.756Z,63.70
2018-07-19T03:40:56.999Z,63.60
2018-07-19T03:41:30.020Z,63.60
2018-07-19T03:42:03.276Z,63.60
2018-07-19T03:42:36.300Z,63.60
2018-07-19T03:43:09.333Z,63.60
2018-07-19T03:43:43.292Z,63.60
2018-07-19T03:44:16.328Z,63.40
2018-07-19T03:44:50.133Z,63.60
2018-07-19T03:45:23.155Z,63.60
2018-07-19T03:45:56.178Z,63.70
2018-07-19T03:46:29.975Z,63.60
2018-07-19T03:47:03.004Z,63.60
2018-07-19T03:47:36.643Z,63.70
2018-07-19T03:48:09.674Z,63.70
2018-07-19T03:48:42.706Z,63.70
2018-07-19T03:49:15.746Z,63.80
2018-07-19T03:49:49.547Z,63.80
2018-07-19T03:50:23.352Z,63.70
2018-07-19T03:50:56.379Z,63.70
2018-07-19T03:51:29.628Z,63.70
2018-07-19T03:52:02.651Z,63.70
2018-07-19T03:52:36.453Z,63.70
2018-07-19T03:53:10.239Z,63.90
2018-07-19T03:53:43.267Z,63.90
2018-07-19T03:54:16.295Z,63.80
2018-07-19T03:54:50.100Z,63.90
2018-07-19T03:55:23.900Z,63.90
2018-07-19T03:55:56.933Z,63.80
2018-07-19T03:56:29.971Z,64.00
2018-07-19T03:57:02.995Z,63.80
2018-07-19T03:57:36.791Z,64.00
2018-07-19T03:58:09.819Z,64.00
2018-07-19T03:58:42.855Z,63.90
2018-07-19T03:59:15.897Z,64.00
2018-07-19T03:59:48.934Z,63.90
2018-07-19T04:00:21.950Z,64.20
2018-07-19T04:00:54.975Z,64.20
2018-07-19T04:01:27.995Z,64.10
2018-07-19T04:02:01.095Z,64.20
2018-07-19T04:02:34.084Z,64.20
2018-07-19T04:03:07.123Z,64.20
2018-07-19T04:03:40.148Z,64.10
2018-07-19T04:04:13.168Z,64.20
2018-07-19T04:04:46.194Z,64.30
2018-07-19T04:05:19.225Z,64.40
2018-07-19T04:05:52.276Z,64.40
2018-07-19T04:06:25.296Z,64.40
2018-07-19T04:06:59.087Z,64.50
2018-07-19T04:07:32.876Z,64.40
2018-07-19T04:08:05.915Z,64.40
2018-07-19T04:08:38.935Z,64.50
2018-07-19T04:09:11.972Z,64.50
2018-07-19T04:09:44.983Z,64.60
2018-07-19T04:10:18.033Z,64.60
2018-07-19T04:10:51.851Z,64.60
2018-07-19T04:11:24.873Z,64.60
2018-07-19T04:11:57.895Z,64.60
2018-07-19T04:12:30.929Z,64.60
2018-07-19T04:13:03.967Z,64.50
2018-07-19T04:13:36.988Z,64.50
2018-07-19T04:14:10.044Z,64.40
2018-07-19T04:14:43.071Z,64.60
2018-07-19T04:15:16.099Z,64.50
2018-07-19T04:15:49.128Z,64.70
2018-07-19T04:16:22.146Z,64.70
2018-07-19T04:16:55.184Z,64.80
2018-07-19T04:17:28.224Z,64.90
2018-07-19T04:18:02.052Z,64.80
2018-07-19T04:18:35.089Z,64.80
2018-07-19T04:19:08.880Z,64.70
2018-07-19T04:19:42.689Z,64.80
2018-07-19T04:20:16.490Z,64.90
2018-07-19T04:20:49.524Z,64.90
2018-07-19T04:21:22.589Z,64.70
2018-07-19T04:21:55.639Z,64.70
2018-07-19T04:22:28.667Z,64.90
2018-07-19T04:23:02.495Z,65.70
2018-07-19T04:23:36.271Z,64.90
2018-07-19T04:24:09.305Z,64.90
2018-07-19T04:24:42.334Z,64.90
2018-07-19T04:25:15.444Z,65.00
2018-07-19T04:25:48.392Z,65.00
2018-07-19T04:26:21.432Z,65.00
2018-07-19T04:26:55.240Z,65.00
2018-07-19T04:27:28.263Z,65.00
2018-07-19T04:28:01.301Z,65.10
2018-07-19T04:28:34.323Z,65.20
2018-07-19T04:29:07.376Z,65.10
2018-07-19T04:29:40.410Z,65.10
2018-07-19T04:30:13.431Z,65.20
2018-07-19T04:30:46.459Z,65.20
2018-07-19T04:31:19.516Z,65.30
2018-07-19T04:31:53.304Z,65.20
2018-07-19T04:32:27.116Z,65.30
2018-07-19T04:33:00.135Z,65.30
2018-07-19T04:33:33.177Z,65.50
2018-07-19T04:34:06.212Z,66.40
2018-07-19T04:34:39.464Z,65.40
2018-07-19T04:35:12.479Z,65.50
2018-07-19T04:35:46.274Z,65.60
2018-07-19T04:36:20.071Z,65.70
2018-07-19T04:36:53.864Z,65.60
2018-07-19T04:37:27.662Z,65.60
2018-07-19T04:38:00.687Z,65.70
2018-07-19T04:38:33.711Z,65.60
2018-07-19T04:39:06.738Z,65.80
2018-07-19T04:39:39.787Z,65.60
2018-07-19T04:40:12.823Z,65.60
2018-07-19T04:40:46.622Z,65.80
2018-07-19T04:41:20.412Z,65.90
2018-07-19T04:41:54.203Z,65.80
2018-07-19T04:42:27.987Z,65.90
2018-07-19T04:43:01.789Z,65.90
2018-07-19T04:43:35.571Z,65.90
2018-07-19T04:44:09.359Z,66.00
2018-07-19T04:44:43.164Z,66.00
2018-07-19T04:45:16.984Z,66.10
2018-07-19T04:45:50.000Z,66.10
2018-07-19T04:46:23.051Z,66.20
2018-07-19T04:46:56.108Z,66.20
2018-07-19T04:47:29.127Z,66.40
2018-07-19T04:48:02.157Z,66.50
2018-07-19T04:48:35.193Z,66.40
2018-07-19T04:49:09.003Z,66.60
2018-07-19T04:49:42.799Z,66.70
2018-07-19T04:50:15.819Z,66.70
2018-07-19T04:50:48.848Z,67.00
2018-07-19T04:51:21.876Z,67.00
2018-07-19T04:51:54.940Z,67.20
2018-07-19T04:52:27.997Z,67.20
2018-07-19T04:53:01.028Z,67.10
2018-07-19T04:53:34.819Z,67.40
2018-07-19T04:54:07.862Z,67.40
2018-07-19T04:54:40.948Z,67.60
2018-07-19T04:55:13.931Z,67.60
2018-07-19T04:55:46.952Z,67.70
2018-07-19T04:56:19.999Z,67.70
2018-07-19T04:56:53.795Z,67.90
2018-07-19T04:57:27.592Z,67.90
2018-07-19T04:58:00.631Z,67.90
2018-07-19T04:58:33.672Z,68.00
2018-07-19T04:59:06.704Z,68.00
2018-07-19T04:59:40.499Z,67.70
2018-07-19T05:00:13.520Z,67.70
2018-07-19T05:00:46.555Z,68.00
2018-07-19T05:01:19.579Z,67.70
2018-07-19T05:01:52.709Z,67.50
2018-07-19T05:02:25.652Z,67.60
2018-07-19T05:02:58.691Z,67.40
2018-07-19T05:03:31.719Z,67.40
2018-07-19T05:04:05.511Z,67.20
2018-07-19T05:04:39.312Z,66.80
2018-07-19T05:05:13.119Z,66.80
2018-07-19T05:05:46.159Z,66.70
2018-07-19T05:06:19.189Z,66.60
2018-07-19T05:06:52.227Z,66.10
2018-07-19T05:07:26.027Z,66.20
2018-07-19T05:07:59.301Z,66.10
2018-07-19T05:08:33.079Z,65.70
2018-07-19T05:09:06.101Z,65.70
2018-07-19T05:09:39.126Z,65.40
2018-07-19T05:10:12.934Z,65.20
2018-07-19T05:10:46.733Z,65.10
2018-07-19T05:11:19.759Z,65.10
2018-07-19T05:11:52.809Z,64.80
2018-07-19T05:12:25.842Z,64.60
2018-07-19T05:12:59.639Z,64.30
2018-07-19T05:13:33.437Z,64.30
2018-07-19T05:14:06.486Z,64.30
2018-07-19T05:14:39.488Z,64.30
2018-07-19T05:15:12.730Z,63.90
2018-07-19T05:15:45.772Z,63.90
2018-07-19T05:16:18.791Z,64.10
2018-07-19T05:16:52.608Z,63.70
2018-07-19T05:17:25.657Z,63.70
2018-07-19T05:17:58.685Z,63.60
2018-07-19T05:18:32.612Z,63.50
2018-07-19T05:19:05.658Z,63.20
2018-07-19T05:19:38.690Z,62.50
2018-07-19T05:20:12.488Z,63.10
2018-07-19T05:20:46.275Z,64.60
2018-07-19T05:21:20.059Z,63.30
2018-07-19T05:21:53.898Z,63.10
2018-07-19T05:22:26.934Z,63.10
2018-07-19T05:23:00.777Z,62.90
2018-07-19T05:23:33.847Z,62.90
2018-07-19T05:24:06.946Z,63.00
2018-07-19T05:24:40.024Z,62.90
2018-07-19T05:25:13.073Z,62.90
2018-07-19T05:25:46.137Z,62.90
2018-07-19T05:26:19.234Z,62.70
2018-07-19T05:26:52.343Z,62.70
2018-07-19T05:27:25.403Z,62.60
2018-07-19T05:27:58.458Z,62.90
2018-07-19T05:28:31.485Z,62.50
2018-07-19T05:29:05.329Z,62.20
2018-07-19T05:29:38.357Z,62.20
2018-07-19T05:30:12.243Z,62.60
2018-07-19T05:30:45.319Z,62.50
2018-07-19T05:31:18.363Z,62.60
2018-07-19T05:31:51.466Z,62.30
2018-07-19T05:32:24.524Z,62.20
2018-07-19T05:32:57.561Z,62.30
2018-07-19T05:33:30.605Z,62.10
2018-07-19T05:34:03.711Z,61.90
2018-07-19T05:34:36.759Z,61.80
2018-07-19T05:35:10.599Z,61.70
2018-07-19T05:35:43.720Z,61.60
2018-07-19T05:36:17.509Z,61.80
2018-07-19T05:36:51.326Z,61.60
2018-07-19T05:37:24.376Z,61.60
2018-07-19T05:37:58.195Z,61.30
2018-07-19T05:38:31.211Z,61.40
2018-07-19T05:39:04.237Z,61.40
2018-07-19T05:39:37.256Z,61.50
2018-07-19T05:40:10.287Z,61.40
2018-07-19T05:40:43.313Z,61.30
2018-07-19T05:41:16.347Z,61.20
2018-07-19T05:41:49.371Z,61.20
2018-07-19T05:42:22.465Z,60.90
2018-07-19T05:42:55.477Z,61.10
2018-07-19T05:43:28.515Z,61.10
2018-07-19T05:44:02.312Z,60.80
2018-07-19T05:44:35.360Z,60.80
2018-07-19T05:45:08.398Z,60.50
2018-07-19T05:45:41.424Z,60.40
2018-07-19T05:46:15.238Z,61.30
2018-07-19T05:46:48.288Z,60.40
2018-07-19T05:47:21.328Z,60.40
2018-07-19T05:47:54.357Z,60.50
2018-07-19T05:48:27.408Z,60.30
2018-07-19T05:49:00.433Z,60.10
2018-07-19T05:49:33.457Z,60.40
2018-07-19T05:50:06.485Z,60.30
2018-07-19T05:50:39.740Z,60.20
2018-07-19T05:51:12.767Z,60.40
2018-07-19T05:51:45.799Z,60.20
2018-07-19T05:52:18.893Z,60.10
2018-07-19T05:52:51.910Z,59.90
2018-07-19T05:53:24.957Z,60.00
2018-07-19T05:53:57.983Z,60.10
2018-07-19T05:54:31.020Z,60.20
2018-07-19T05:55:04.062Z,60.30
2018-07-19T05:55:37.120Z,60.10
2018-07-19T05:56:10.885Z,59.80
2018-07-19T05:56:44.679Z,59.80
2018-07-19T05:57:18.496Z,59.80
2018-07-19T05:57:51.645Z,59.80
2018-07-19T05:58:25.425Z,60.20
2018-07-19T05:58:58.468Z,60.10
2018-07-19T05:59:31.507Z,59.90
2018-07-19T06:00:04.552Z,60.20
2018-07-19T06:00:37.598Z,59.60
2018-07-19T06:01:10.644Z,59.30
2018-07-19T06:01:43.700Z,59.40
2018-07-19T06:02:17.503Z,59.40
2018-07-19T06:02:50.569Z,59.40
2018-07-19T06:03:23.612Z,59.40
2018-07-19T06:03:56.656Z,59.50
2018-07-19T06:04:29.695Z,59.50
2018-07-19T06:05:02.812Z,59.60
2018-07-19T06:05:35.890Z,59.90
2018-07-19T06:06:08.945Z,59.80
2018-07-19T06:06:41.960Z,59.60
2018-07-19T06:07:14.979Z,59.70
2018-07-19T06:07:48.009Z,59.90
2018-07-19T06:08:21.041Z,59.80
2018-07-19T06:08:54.069Z,59.50
2018-07-19T06:09:27.875Z,59.40
2018-07-19T06:10:01.664Z,59.20
2018-07-19T06:10:35.480Z,59.20
2018-07-19T06:11:08.515Z,59.20
2018-07-19T06:11:41.540Z,58.80
2018-07-19T06:12:14.574Z,58.90
2018-07-19T06:12:48.381Z,59.00
2018-07-19T06:13:22.180Z,58.80
2018-07-19T06:13:55.209Z,58.90
2018-07-19T06:14:28.233Z,58.90
2018-07-19T06:15:01.253Z,59.20
2018-07-19T06:15:34.291Z,59.40
2018-07-19T06:16:07.332Z,58.60
2018-07-19T06:16:40.351Z,58.60
2018-07-19T06:17:13.389Z,58.80
2018-07-19T06:17:47.199Z,58.70
2018-07-19T06:18:20.243Z,58.70
2018-07-19T06:18:53.275Z,58.80
2018-07-19T06:19:26.313Z,58.80
2018-07-19T06:20:00.104Z,58.30
2018-07-19T06:20:33.365Z,58.20
2018-07-19T06:21:06.386Z,58.40
2018-07-19T06:21:39.422Z,58.30
2018-07-19T06:22:13.214Z,58.20
2018-07-19T06:22:47.010Z,58.00
2018-07-19T06:23:20.809Z,58.10
2018-07-19T06:23:54.651Z,58.10
2018-07-19T06:24:27.706Z,58.10
2018-07-19T06:25:00.740Z,58.30
2018-07-19T06:25:34.554Z,58.30
2018-07-19T06:26:07.581Z,58.20
2018-07-19T06:26:40.617Z,58.30
2018-07-19T06:27:13.651Z,58.40
2018-07-19T06:27:47.466Z,58.20
2018-07-19T06:28:20.523Z,58.20
2018-07-19T06:28:53.795Z,58.40
2018-07-19T06:29:26.857Z,58.10
2018-07-19T06:29:59.916Z,58.10
2018-07-19T06:30:32.971Z,58.00
2018-07-19T06:31:06.021Z,57.90
2018-07-19T06:31:39.086Z,57.80
2018-07-19T06:32:12.080Z,57.80
2018-07-19T06:32:46.745Z,57.80
2018-07-19T06:33:19.783Z,57.90
2018-07-19T06:33:52.829Z,58.00
2018-07-19T06:34:25.869Z,58.00
2018-07-19T06:34:58.906Z,57.90
2018-07-19T06:35:31.940Z,57.90
2018-07-19T06:36:05.757Z,57.50
2018-07-19T06:36:38.780Z,57.50
2018-07-19T06:37:11.808Z,57.50
2018-07-19T06:37:44.850Z,57.30
2018-07-19T06:38:18.640Z,57.30
2018-07-19T06:38:52.438Z,57.20
2018-07-19T06:39:26.240Z,57.30
2018-07-19T06:40:00.037Z,57.30
2018-07-19T06:40:33.826Z,57.10
2018-07-19T06:41:06.864Z,57.20
2018-07-19T06:41:39.891Z,57.20
2018-07-19T06:42:12.928Z,57.30
2018-07-19T06:42:45.982Z,56.80
2018-07-19T06:43:19.020Z,57.10
2018-07-19T06:43:52.047Z,56.80
2018-07-19T06:44:25.076Z,57.10
2018-07-19T06:44:58.108Z,57.30
2018-07-19T06:45:31.928Z,56.90
2018-07-19T06:46:04.968Z,56.90
2018-07-19T06:46:38.020Z,56.90
2018-07-19T06:47:12.058Z,56.60
2018-07-19T06:47:45.868Z,56.20
2018-07-19T06:48:18.893Z,56.10
2018-07-19T06:48:51.912Z,56.10
2018-07-19T06:49:25.023Z,56.40
2018-07-19T06:49:58.036Z,56.40
2018-07-19T06:50:31.839Z,56.90
2018-07-19T06:51:05.635Z,56.20
2018-07-19T06:51:39.471Z,56.20
2018-07-19T06:52:12.522Z,56.20
2018-07-19T06:52:45.561Z,56.10
2018-07-19T06:53:18.594Z,56.30
2018-07-19T06:53:51.640Z,55.60
2018-07-19T06:54:24.678Z,56.10
2018-07-19T06:54:57.704Z,56.00
2018-07-19T06:55:30.724Z,56.20
2018-07-19T06:56:03.771Z,56.10
2018-07-19T06:56:36.809Z,55.90
2018-07-19T06:57:09.845Z,56.10
2018-07-19T06:57:42.959Z,56.30
2018-07-19T06:58:16.781Z,56.10
2018-07-19T06:58:49.837Z,56.10
2018-07-19T06:59:22.855Z,56.20
2018-07-19T06:59:55.873Z,56.30
2018-07-19T07:00:28.899Z,56.00
2018-07-19T07:01:01.932Z,55.70
2018-07-19T07:01:34.977Z,56.00
2018-07-19T07:02:08.783Z,55.20
2018-07-19T07:02:42.588Z,54.90
2018-07-19T07:03:15.614Z,54.90
2018-07-19T07:03:48.765Z,55.30
2018-07-19T07:04:21.373Z,55.10
2018-07-19T07:04:55.085Z,55.50
2018-07-19T07:05:28.118Z,55.50
2018-07-19T07:06:01.152Z,55.20
2018-07-19T07:06:34.171Z,55.50
2018-07-19T07:07:07.219Z,55.00
2018-07-19T07:07:40.264Z,54.80
2018-07-19T07:08:13.299Z,55.00